createdAt,value
2019-04-21T00:01:22.347Z,7.40
2019-04-21T00:03:57.464Z,7.20
2019-04-21T00:09:20.515Z,7.83
2019-04-21T00:11:53.774Z,7.20
2019-04-21T00:14:14.203Z,7.33
2019-04-21T00:16:41.561Z,7.43
2019-04-21T00:19:17.344Z,7.67
2019-04-21T00:21:49.235Z,7.47
2019-04-21T00:24:30.513Z,8.60
2019-04-21T00:27:07.737Z,7.23
2019-04-21T00:29:42.510Z,7.43
2019-04-21T00:32:08.574Z,7.70
2019-04-21T00:34:23.756Z,8.13
2019-04-21T00:37:07.042Z,7.83
2019-04-21T00:39:58.252Z,7.60
2019-04-21T00:42:18.423Z,7.60
2019-04-21T00:44:50.139Z,8.00
2019-04-21T00:47:26.686Z,8.40
2019-04-21T00:49:56.640Z,8.30
2019-04-21T00:55:44.463Z,8.43
2019-04-21T00:58:10.750Z,7.87
2019-04-21T01:00:46.372Z,7.90
2019-04-21T01:03:20.498Z,8.30
2019-04-21T01:05:54.785Z,8.90
2019-04-21T01:08:19.979Z,7.80
2019-04-21T01:10:43.991Z,8.00
2019-04-21T01:13:29.409Z,7.93
2019-04-21T01:15:59.606Z,7.83
2019-04-21T01:18:29.609Z,8.50
2019-04-21T01:20:38.528Z,8.50
2019-04-21T01:23:08.812Z,8.10
2019-04-21T01:25:45.979Z,8.10
2019-04-21T01:28:28.923Z,8.60
2019-04-21T01:31:03.432Z,7.97
2019-04-21T01:33:39.797Z,8.30
2019-04-21T01:36:06.676Z,8.47
2019-04-21T01:38:44.322Z,7.40
2019-04-21T01:41:13.300Z,8.30
2019-04-21T01:43:39.465Z,7.70
2019-04-21T01:46:15.383Z,7.90
2019-04-21T01:48:42.825Z,8.00
2019-04-21T01:51:16.048Z,7.57
2019-04-21T01:54:08.845Z,9.17
2019-04-21T01:56:44.544Z,8.07
2019-04-21T01:59:03.449Z,8.30
2019-04-21T02:01:45.839Z,8.47
2019-04-21T02:04:29.472Z,8.50
2019-04-21T02:06:57.273Z,8.03
2019-04-21T02:09:35.762Z,8.90
2019-04-21T02:12:10.575Z,8.50
2019-04-21T02:14:46.315Z,8.27
2019-04-21T02:17:13.246Z,8.23
2019-04-21T02:19:35.988Z,8.53
2019-04-21T02:22:24.134Z,9.27
2019-04-21T02:25:08.258Z,8.77
2019-04-21T02:27:23.790Z,9.00
2019-04-21T02:29:55.855Z,8.53
2019-04-21T02:35:18.672Z,8.47
2019-04-21T02:37:46.819Z,9.13
2019-04-21T02:40:11.574Z,9.00
2019-04-21T02:42:53.840Z,9.30
2019-04-21T02:45:19.054Z,8.60
2019-04-21T02:47:59.082Z,8.90
2019-04-21T02:50:30.509Z,9.30
2019-04-21T02:52:53.334Z,9.77
2019-04-21T02:55:26.261Z,9.30
2019-04-21T03:03:34.350Z,9.50
2019-04-21T03:06:08.615Z,10.17
2019-04-21T03:08:44.295Z,9.33
2019-04-21T03:11:12.268Z,10.53
2019-04-21T03:16:23.377Z,9.37
2019-04-21T03:19:07.198Z,9.43
2019-04-21T03:21:20.488Z,9.00
2019-04-21T03:26:48.905Z,9.77
2019-04-21T03:29:05.863Z,9.63
2019-04-21T03:32:05.674Z,10.30
2019-04-21T03:39:09.566Z,10.23
2019-04-21T03:41:52.561Z,10.40
2019-04-21T03:44:14.701Z,10.10
2019-04-21T03:46:47.515Z,11.20
2019-04-21T03:51:54.926Z,10.87
2019-04-21T03:54:41.443Z,10.60
2019-04-21T03:59:38.948Z,11.07
2019-04-21T04:02:35.012Z,11.10
2019-04-21T04:05:12.247Z,10.93
2019-04-21T04:10:31.397Z,12.03
2019-04-21T04:12:54.692Z,12.17
2019-04-21T04:15:31.161Z,13.30
2019-04-21T04:17:54.386Z,11.40
2019-04-21T04:20:28.183Z,11.00
2019-04-21T04:23:03.312Z,11.33
2019-04-21T04:25:27.787Z,10.93
2019-04-21T04:28:08.261Z,10.47
2019-04-21T04:33:07.983Z,10.40
2019-04-21T04:35:52.883Z,9.90
2019-04-21T04:38:33.924Z,11.27
2019-04-21T04:41:14.481Z,10.00
2019-04-21T04:43:39.526Z,10.73
2019-04-21T04:46:09.056Z,11.40
2019-04-21T04:48:43.295Z,11.93
2019-04-21T04:51:19.345Z,12.10
2019-04-21T04:53:45.894Z,11.10
2019-04-21T04:56:20.559Z,12.00
2019-04-21T05:04:13.988Z,12.03
2019-04-21T05:06:42.726Z,11.07
2019-04-21T05:11:46.095Z,11.00
2019-04-21T05:14:18.260Z,11.43
2019-04-21T05:21:40.439Z,10.80
2019-04-21T05:23:59.878Z,10.33
2019-04-21T05:26:26.855Z,10.00
2019-04-21T05:28:58.897Z,9.73
2019-04-21T05:31:56.716Z,10.13
2019-04-21T05:34:27.569Z,10.00
2019-04-21T05:37:21.758Z,9.63
2019-04-21T05:39:53.502Z,9.73
2019-04-21T05:42:35.374Z,10.10
2019-04-21T05:45:21.090Z,10.00
2019-04-21T05:48:12.069Z,10.23
2019-04-21T05:50:30.440Z,8.87
2019-04-21T05:52:58.551Z,10.73
2019-04-21T05:58:09.800Z,10.00
2019-04-21T06:01:06.349Z,10.20
2019-04-21T06:03:19.697Z,10.43
2019-04-21T06:08:25.692Z,11.40
2019-04-21T06:10:52.297Z,11.90
2019-04-21T06:13:41.002Z,11.10
2019-04-21T06:16:03.559Z,11.20
2019-04-21T06:18:44.928Z,10.37
2019-04-21T06:21:05.605Z,10.83
2019-04-21T06:23:35.981Z,10.73
2019-04-21T06:28:49.029Z,11.37
2019-04-21T06:33:50.478Z,9.67
2019-04-21T06:36:42.571Z,10.87
2019-04-21T06:39:27.594Z,10.40
2019-04-21T06:41:55.697Z,10.40
2019-04-21T06:44:16.487Z,10.70
2019-04-21T06:46:39.326Z,10.03
2019-04-21T06:49:17.319Z,9.97
2019-04-21T06:51:52.549Z,9.63
2019-04-21T06:54:25.556Z,9.20
2019-04-21T06:56:51.544Z,10.00
2019-04-21T06:59:24.942Z,10.63
2019-04-21T07:04:33.219Z,9.47
2019-04-21T07:07:03.203Z,10.17
2019-04-21T07:09:52.748Z,9.40
2019-04-21T07:12:07.466Z,10.00
2019-04-21T07:14:43.754Z,8.90
2019-04-21T07:20:02.186Z,10.17
2019-04-21T07:22:19.438Z,8.97
2019-04-21T07:24:52.012Z,9.33
2019-04-21T07:27:22.268Z,9.60
2019-04-21T07:29:56.750Z,9.53
2019-04-21T07:32:23.323Z,8.90
2019-04-21T07:35:00.574Z,10.37
2019-04-21T07:37:30.680Z,9.17
2019-04-21T07:39:57.320Z,9.37
2019-04-21T07:42:29.292Z,9.83
2019-04-21T07:44:57.976Z,9.87
2019-04-21T07:47:47.795Z,10.60
2019-04-21T07:50:20.882Z,10.10
2019-04-21T07:53:01.008Z,9.80
2019-04-21T07:58:03.011Z,9.40
2019-04-21T08:00:45.027Z,9.60
2019-04-21T08:03:09.288Z,9.17
2019-04-21T08:05:58.558Z,9.87
2019-04-21T08:08:09.518Z,9.70
2019-04-21T08:10:47.170Z,9.50
2019-04-21T08:13:25.275Z,9.90
2019-04-21T08:16:04.735Z,9.53
2019-04-21T08:18:25.484Z,10.60
2019-04-21T08:20:57.751Z,10.47
2019-04-21T08:23:25.607Z,10.43
2019-04-21T08:26:06.634Z,10.03
2019-04-21T08:28:35.827Z,10.50
2019-04-21T08:31:01.314Z,10.37
2019-04-21T08:33:38.702Z,10.70
2019-04-21T08:38:42.378Z,9.23
2019-04-21T08:41:08.691Z,9.87
2019-04-21T08:46:15.236Z,9.23
2019-04-21T08:48:52.581Z,9.00
2019-04-21T08:53:53.474Z,9.00
2019-04-21T08:56:45.329Z,9.43
2019-04-21T08:59:31.366Z,8.87
2019-04-21T09:02:08.944Z,8.50
2019-04-21T09:04:33.539Z,8.30
2019-04-21T09:07:22.599Z,9.20
2019-04-21T09:09:44.461Z,8.87
2019-04-21T09:12:15.021Z,8.63
2019-04-21T09:14:50.198Z,8.70
2019-04-21T09:17:19.142Z,8.83
2019-04-21T09:20:01.818Z,8.50
2019-04-21T09:22:28.583Z,8.33
2019-04-21T09:25:14.641Z,8.13
2019-04-21T09:27:29.292Z,7.87
2019-04-21T09:29:46.648Z,8.03
2019-04-21T09:32:18.791Z,7.57
2019-04-21T09:34:47.314Z,7.87
2019-04-21T09:37:28.716Z,7.63
2019-04-21T09:39:52.406Z,7.30
2019-04-21T09:42:22.060Z,7.90
2019-04-21T09:44:57.992Z,8.00
2019-04-21T09:47:35.127Z,7.77
2019-04-21T09:49:58.458Z,7.63
2019-04-21T09:52:39.158Z,7.70
2019-04-21T09:55:06.984Z,8.07
2019-04-21T09:57:42.259Z,7.53
2019-04-21T10:00:13.074Z,7.73
2019-04-21T10:02:48.234Z,6.80
2019-04-21T10:05:10.562Z,7.67
2019-04-21T10:07:43.804Z,7.23
2019-04-21T10:10:12.983Z,7.87
2019-04-21T10:12:43.490Z,7.20
2019-04-21T10:15:14.237Z,7.30
2019-04-21T10:17:48.040Z,7.80
2019-04-21T10:20:20.168Z,7.13
2019-04-21T10:23:09.541Z,6.77
2019-04-21T10:25:40.883Z,8.00
2019-04-21T10:28:11.323Z,6.87
2019-04-21T10:30:44.715Z,6.90
2019-04-21T10:33:16.574Z,7.17
2019-04-21T10:35:47.333Z,6.97
2019-04-21T10:38:27.978Z,6.40
2019-04-21T10:40:50.021Z,6.57
2019-04-21T10:43:22.143Z,6.47
2019-04-21T10:45:52.849Z,7.33
2019-04-21T10:48:23.190Z,7.00
2019-04-21T10:50:54.807Z,6.40
2019-04-21T10:53:29.073Z,7.13
2019-04-21T10:56:13.634Z,6.90
2019-04-21T10:58:36.461Z,6.03
2019-04-21T11:01:14.561Z,6.60
2019-04-21T11:03:53.027Z,6.37
2019-04-21T11:06:24.439Z,5.90
2019-04-21T11:08:57.191Z,5.90
2019-04-21T11:11:27.935Z,5.50
2019-04-21T11:13:58.894Z,5.30
2019-04-21T11:16:29.300Z,5.50
2019-04-21T11:18:59.978Z,5.30
2019-04-21T11:21:31.121Z,5.90
2019-04-21T11:24:01.902Z,5.80
2019-04-21T11:26:32.266Z,5.70
2019-04-21T11:29:03.142Z,5.67
2019-04-21T11:31:34.061Z,6.00
2019-04-21T11:34:05.151Z,6.03
2019-04-21T11:36:37.508Z,5.67
2019-04-21T11:39:48.004Z,6.20
2019-04-21T11:42:17.578Z,5.80
2019-04-21T11:44:49.274Z,6.37
2019-04-21T11:47:25.859Z,6.40
2019-04-21T11:49:57.070Z,6.03
2019-04-21T11:52:28.888Z,6.37
2019-04-21T11:55:00.536Z,5.80
2019-04-21T11:57:36.505Z,6.03
2019-04-21T12:00:03.895Z,5.83
2019-04-21T12:02:35.694Z,6.03
2019-04-21T12:05:07.469Z,6.43
2019-04-21T12:07:38.134Z,5.93
2019-04-21T12:10:09.215Z,7.00
2019-04-21T12:12:51.463Z,6.20
2019-04-21T12:15:22.938Z,6.13
2019-04-21T12:17:54.327Z,5.80
2019-04-21T12:20:24.891Z,5.47
2019-04-21T12:22:55.321Z,6.20
2019-04-21T12:25:29.182Z,5.80
2019-04-21T12:27:59.906Z,5.83
2019-04-21T12:30:31.479Z,5.57
2019-04-21T12:33:09.786Z,5.80
2019-04-21T12:35:41.777Z,5.90
2019-04-21T12:38:13.069Z,6.43
2019-04-21T12:40:44.360Z,6.27
2019-04-21T12:43:14.855Z,5.80
2019-04-21T12:45:46.056Z,5.47
2019-04-21T12:48:16.280Z,6.47
2019-04-21T12:50:47.822Z,6.30
2019-04-21T12:53:19.336Z,5.90
2019-04-21T12:55:49.987Z,5.43
2019-04-21T12:58:21.467Z,5.97
2019-04-21T13:00:51.991Z,5.63
2019-04-21T13:03:24.777Z,5.87
2019-04-21T13:05:55.934Z,6.00
2019-04-21T13:08:27.160Z,6.33
2019-04-21T13:10:58.074Z,6.00
2019-04-21T13:13:28.571Z,5.73
2019-04-21T13:15:58.856Z,6.27
2019-04-21T13:18:29.168Z,5.73
2019-04-21T13:21:02.172Z,5.70
2019-04-21T13:23:32.716Z,6.23
2019-04-21T13:26:04.939Z,5.57
2019-04-21T13:28:37.498Z,5.97
2019-04-21T13:31:08.604Z,5.10
2019-04-21T13:33:39.900Z,5.57
2019-04-21T13:36:11.650Z,5.50
2019-04-21T13:39:33.045Z,5.40
2019-04-21T13:41:47.365Z,5.27
2019-04-21T13:44:15.729Z,5.90
2019-04-21T13:46:47.153Z,5.70
2019-04-21T13:49:19.213Z,6.07
2019-04-21T13:51:51.958Z,6.10
2019-04-21T13:54:23.490Z,5.53
2019-04-21T13:56:54.417Z,5.70
2019-04-21T13:59:26.315Z,5.50
2019-04-21T14:01:58.268Z,5.90
2019-04-21T14:04:29.586Z,5.37
2019-04-21T14:07:00.551Z,5.37
2019-04-21T14:09:43.114Z,5.53
2019-04-21T14:12:05.394Z,5.60
2019-04-21T14:14:36.602Z,4.63
2019-04-21T14:17:07.146Z,5.40
2019-04-21T14:19:37.479Z,5.43
2019-04-21T14:22:10.088Z,5.40
2019-04-21T14:24:39.781Z,5.03
2019-04-21T14:27:10.207Z,5.50
2019-04-21T14:29:41.716Z,5.17
2019-04-21T14:32:12.078Z,5.13
2019-04-21T14:34:43.834Z,5.00
2019-04-21T14:37:14.806Z,5.47
2019-04-21T14:39:53.790Z,5.50
2019-04-21T14:42:18.084Z,5.07
2019-04-21T14:44:49.105Z,5.20
2019-04-21T14:47:29.451Z,5.07
2019-04-21T14:50:22.493Z,5.30
2019-04-21T14:53:12.010Z,4.97
2019-04-21T14:55:45.799Z,5.03
2019-04-21T14:58:17.212Z,4.83
2019-04-21T15:01:02.196Z,4.67
2019-04-21T15:03:37.677Z,4.57
2019-04-21T15:06:09.293Z,5.20
2019-04-21T15:08:39.764Z,5.00
2019-04-21T15:11:11.628Z,5.13
2019-04-21T15:13:42.045Z,5.23
2019-04-21T15:16:13.016Z,4.43
2019-04-21T15:18:44.520Z,4.83
2019-04-21T15:21:15.401Z,4.70
2019-04-21T15:23:48.423Z,4.60
2019-04-21T15:26:20.084Z,4.30
2019-04-21T15:28:51.029Z,4.50
2019-04-21T15:31:28.737Z,4.13
2019-04-21T15:33:54.863Z,4.10
2019-04-21T15:36:25.280Z,4.40
2019-04-21T15:38:56.151Z,4.10
2019-04-21T15:41:30.220Z,4.40
2019-04-21T15:44:02.622Z,4.40
2019-04-21T15:46:35.136Z,4.37
2019-04-21T15:49:07.009Z,3.97
2019-04-21T15:51:38.002Z,4.00
2019-04-21T15:54:08.871Z,4.20
2019-04-21T15:56:44.783Z,4.60
2019-04-21T15:59:40.310Z,4.33
2019-04-21T16:02:28.624Z,4.37
2019-04-21T16:04:59.042Z,4.83
2019-04-21T16:07:29.880Z,4.50
2019-04-21T16:10:02.302Z,4.23
2019-04-21T16:12:33.915Z,4.33
2019-04-21T16:15:04.992Z,3.87
2019-04-21T16:17:37.304Z,4.03
2019-04-21T16:20:10.048Z,4.10
2019-04-21T16:22:42.415Z,4.33
2019-04-21T16:25:12.964Z,4.40
2019-04-21T16:27:43.616Z,3.80
2019-04-21T16:30:17.571Z,4.20
2019-04-21T16:32:48.285Z,4.00
2019-04-21T16:35:19.984Z,4.30
2019-04-21T16:37:50.656Z,4.20
2019-04-21T16:40:21.571Z,4.77
2019-04-21T16:42:52.166Z,4.07
2019-04-21T16:45:23.132Z,3.63
2019-04-21T16:47:55.206Z,3.43
2019-04-21T16:50:25.791Z,3.53
2019-04-21T16:52:59.986Z,3.60
2019-04-21T16:55:42.227Z,3.43
2019-04-21T16:58:44.891Z,3.07
2019-04-21T17:01:20.578Z,3.23
2019-04-21T17:03:52.678Z,3.23
2019-04-21T17:06:23.146Z,2.77
2019-04-21T17:08:54.674Z,3.63
2019-04-21T17:11:27.334Z,3.20
2019-04-21T17:14:00.095Z,3.37
2019-04-21T17:17:08.660Z,8.70
2019-04-21T17:19:13.506Z,19.47
2019-04-21T17:21:34.748Z,16.97
2019-04-21T17:24:06.462Z,3.87
2019-04-21T17:26:39.092Z,3.53
2019-04-21T17:29:10.288Z,4.07
2019-04-21T17:31:41.382Z,5.30
2019-04-21T17:34:17.997Z,3.67
2019-04-21T17:36:45.346Z,5.17
2019-04-21T17:39:16.390Z,5.37
2019-04-21T17:42:00.394Z,4.00
2019-04-21T17:44:19.363Z,3.63
2019-04-21T17:46:57.312Z,3.83
2019-04-21T17:49:23.027Z,3.77
2019-04-21T17:52:40.313Z,4.10
2019-04-21T17:55:21.453Z,4.00
2019-04-21T17:58:03.420Z,3.93
2019-04-21T18:01:00.982Z,3.93
2019-04-21T18:03:28.103Z,3.90
2019-04-21T18:05:42.528Z,4.20
2019-04-21T18:08:20.956Z,4.13
2019-04-21T18:10:45.681Z,4.60
2019-04-21T18:13:08.795Z,5.70
2019-04-21T18:15:52.393Z,5.00
2019-04-21T18:18:08.435Z,5.23
2019-04-21T18:20:41.842Z,4.87
2019-04-21T18:23:50.601Z,5.27
2019-04-21T18:26:25.737Z,4.83
2019-04-21T18:28:44.508Z,4.90
2019-04-21T18:31:16.430Z,4.70
2019-04-21T18:34:08.546Z,3.77
2019-04-21T18:36:52.140Z,4.00
2019-04-21T18:39:46.460Z,4.00
2019-04-21T18:42:42.144Z,4.17
2019-04-21T18:48:06.707Z,5.10
2019-04-21T18:50:48.905Z,4.93
2019-04-21T18:53:32.535Z,4.93
2019-04-21T18:55:51.554Z,5.00
2019-04-21T18:58:20.097Z,4.60
2019-04-21T19:00:52.617Z,4.80
2019-04-21T19:03:29.193Z,5.13
2019-04-21T19:07:12.947Z,4.77
2019-04-21T19:10:10.042Z,5.17
2019-04-21T19:12:23.540Z,5.10
2019-04-21T19:14:46.879Z,4.40
2019-04-21T19:20:08.939Z,4.37
2019-04-21T19:22:28.202Z,4.33
2019-04-21T19:24:59.720Z,4.67
2019-04-21T19:27:33.217Z,4.57
2019-04-21T19:32:37.556Z,4.60
2019-04-21T19:34:57.073Z,4.50
2019-04-21T19:37:28.237Z,5.37
2019-04-21T19:40:09.631Z,4.67
2019-04-21T19:42:39.984Z,4.63
2019-04-21T19:45:17.922Z,4.60
2019-04-21T19:47:56.165Z,5.20
2019-04-21T19:50:33.518Z,4.97
2019-04-21T19:52:48.709Z,4.70
2019-04-21T19:55:12.087Z,5.33
2019-04-21T19:57:43.150Z,4.63
2019-04-21T20:00:15.882Z,4.67
2019-04-21T20:02:46.310Z,4.97
2019-04-21T20:05:25.595Z,5.73
2019-04-21T20:08:06.380Z,5.23
2019-04-21T20:10:39.505Z,5.67
2019-04-21T20:13:14.826Z,6.40
2019-04-21T20:15:44.704Z,5.80
2019-04-21T20:18:14.042Z,5.97
2019-04-21T20:20:31.043Z,6.17
2019-04-21T20:23:03.070Z,5.80
2019-04-21T20:25:39.349Z,6.27
2019-04-21T20:28:14.367Z,6.00
2019-04-21T20:30:58.395Z,5.30
2019-04-21T20:33:48.839Z,5.40
2019-04-21T20:36:02.075Z,5.10
2019-04-21T20:38:24.477Z,5.10
2019-04-21T20:40:56.393Z,5.80
2019-04-21T20:43:37.022Z,5.87
2019-04-21T20:46:09.411Z,5.60
2019-04-21T20:48:41.463Z,5.73
2019-04-21T20:51:18.407Z,5.90
2019-04-21T20:53:44.367Z,5.50
2019-04-21T20:56:11.499Z,6.07
2019-04-21T20:58:50.262Z,6.57
2019-04-21T21:03:51.798Z,7.03
2019-04-21T21:06:26.141Z,6.93
2019-04-21T21:09:00.217Z,7.00
2019-04-21T21:11:36.966Z,6.83
2019-04-21T21:14:07.143Z,6.73
2019-04-21T21:19:18.652Z,6.00
2019-04-21T21:21:40.214Z,6.57
2019-04-21T21:24:15.917Z,5.93
2019-04-21T21:26:48.607Z,6.00
2019-04-21T21:29:22.813Z,5.57
2019-04-21T21:32:04.296Z,5.70
2019-04-21T21:34:27.826Z,5.73
2019-04-21T21:36:55.616Z,5.80
2019-04-21T21:39:31.858Z,5.43
2019-04-21T21:41:49.711Z,5.03
2019-04-21T21:44:19.940Z,5.83
2019-04-21T21:46:58.924Z,5.33
2019-04-21T21:49:35.464Z,4.90
2019-04-21T21:51:59.128Z,5.20
2019-04-21T21:54:22.155Z,4.93
2019-04-21T21:56:52.437Z,4.57
2019-04-21T21:59:28.391Z,5.00
2019-04-21T22:01:57.876Z,5.73
2019-04-21T22:04:32.087Z,4.80
2019-04-21T22:07:09.219Z,6.30
2019-04-21T22:09:32.651Z,5.50
2019-04-21T22:12:06.697Z,6.20
2019-04-21T22:14:41.586Z,5.70
2019-04-21T22:17:27.615Z,5.87
2019-04-21T22:20:02.989Z,5.90
2019-04-21T22:22:27.733Z,6.57
2019-04-21T22:24:55.570Z,6.57
2019-04-21T22:27:17.026Z,6.73
2019-04-21T22:29:51.603Z,6.47
2019-04-21T22:32:25.437Z,7.37
2019-04-21T22:34:56.471Z,6.90
2019-04-21T22:37:39.172Z,7.03
2019-04-21T22:40:08.565Z,6.63
2019-04-21T22:42:33.218Z,6.93
2019-04-21T22:45:00.638Z,6.87
2019-04-21T22:47:34.536Z,6.90
2019-04-21T22:50:04.316Z,6.50
2019-04-21T22:52:35.650Z,6.33
2019-04-21T22:55:10.953Z,6.10
2019-04-21T22:57:40.809Z,6.60
2019-04-21T23:00:15.448Z,6.70
2019-04-21T23:02:46.982Z,7.00
2019-04-21T23:05:22.231Z,7.83
2019-04-21T23:07:54.824Z,6.50
2019-04-21T23:10:23.504Z,7.40
2019-04-21T23:12:57.529Z,7.70
2019-04-21T23:15:50.857Z,6.67
2019-04-21T23:18:32.648Z,6.50
2019-04-21T23:21:06.170Z,6.60
2019-04-21T23:23:42.219Z,6.63
2019-04-21T23:26:14.750Z,6.53
2019-04-21T23:28:45.737Z,6.83
2019-04-21T23:31:21.317Z,6.50
2019-04-21T23:33:30.682Z,6.27
2019-04-21T23:36:11.053Z,7.27
2019-04-21T23:38:40.704Z,6.97
2019-04-21T23:41:11.083Z,6.97
2019-04-21T23:43:40.558Z,7.30
2019-04-21T23:46:18.875Z,7.20
2019-04-21T23:49:03.937Z,6.93
2019-04-21T23:51:29.360Z,7.00
2019-04-21T23:53:47.213Z,7.67
2019-04-21T23:56:41.942Z,7.10
2019-04-21T23:59:12.533Z,6.77
